sensor_id;sensor_type;location;lat;lon;timestamp;P1;durP1;ratioP1;P2;durP2;ratioP2
25913;SDS011;13718;50.922;5.346;2022-12-20T00:00:42;4.32;;;1.52;;
25913;SDS011;13718;50.922;5.346;2022-12-20T00:03:08;3.70;;;1.90;;
25913;SDS011;13718;50.922;5.346;2022-12-20T00:05:37;4.07;;;2.08;;
25913;SDS011;13718;50.922;5.346;2022-12-20T00:08:04;4.75;;;1.83;;
25913;SDS011;13718;50.922;5.346;2022-12-20T00:10:30;3.10;;;1.63;;
25913;SDS011;13718;50.922;5.346;2022-12-20T00:12:59;3.75;;;1.50;;
25913;SDS011;13718;50.922;5.346;2022-12-20T00:15:24;4.40;;;1.85;;
25913;SDS011;13718;50.922;5.346;2022-12-20T00:17:50;3.72;;;1.52;;
25913;SDS011;13718;50.922;5.346;2022-12-20T00:20:16;3.60;;;1.75;;
25913;SDS011;13718;50.922;5.346;2022-12-20T00:22:41;3.17;;;1.50;;
25913;SDS011;13718;50.922;5.346;2022-12-20T00:25:07;4.30;;;1.70;;
25913;SDS011;13718;50.922;5.346;2022-12-20T00:27:33;3.70;;;1.60;;
25913;SDS011;13718;50.922;5.346;2022-12-20T00:29:58;8.55;;;1.60;;
25913;SDS011;13718;50.922;5.346;2022-12-20T00:32:24;2.85;;;1.60;;
25913;SDS011;13718;50.922;5.346;2022-12-20T00:34:50;7.53;;;1.83;;
25913;SDS011;13718;50.922;5.346;2022-12-20T00:37:16;3.58;;;1.77;;
25913;SDS011;13718;50.922;5.346;2022-12-20T00:39:42;3.45;;;1.40;;
25913;SDS011;13718;50.922;5.346;2022-12-20T00:42:07;3.45;;;1.50;;
25913;SDS011;13718;50.922;5.346;2022-12-20T00:44:33;3.10;;;1.63;;
25913;SDS011;13718;50.922;5.346;2022-12-20T00:46:58;6.00;;;1.92;;
25913;SDS011;13718;50.922;5.346;2022-12-20T00:49:24;4.72;;;1.80;;
25913;SDS011;13718;50.922;5.346;2022-12-20T00:51:50;4.40;;;2.05;;
25913;SDS011;13718;50.922;5.346;2022-12-20T00:54:15;3.67;;;1.65;;
25913;SDS011;13718;50.922;5.346;2022-12-20T00:56:41;4.00;;;1.90;;
25913;SDS011;13718;50.922;5.346;2022-12-20T00:59:06;6.22;;;1.83;;
25913;SDS011;13718;50.922;5.346;2022-12-20T01:01:32;6.55;;;2.30;;
25913;SDS011;13718;50.922;5.346;2022-12-20T01:03:59;3.72;;;1.80;;
25913;SDS011;13718;50.922;5.346;2022-12-20T01:06:25;4.57;;;1.75;;
25913;SDS011;13718;50.922;5.346;2022-12-20T01:08:52;6.88;;;2.42;;
25913;SDS011;13718;50.922;5.346;2022-12-20T01:11:19;3.83;;;1.92;;
25913;SDS011;13718;50.922;5.346;2022-12-20T01:13:48;4.85;;;1.73;;
25913;SDS011;13718;50.922;5.346;2022-12-20T01:16:18;4.22;;;1.70;;
25913;SDS011;13718;50.922;5.346;2022-12-20T01:18:51;4.53;;;1.70;;
25913;SDS011;13718;50.922;5.346;2022-12-20T01:21:18;4.70;;;1.75;;
25913;SDS011;13718;50.922;5.346;2022-12-20T01:23:45;3.20;;;1.67;;
25913;SDS011;13718;50.922;5.346;2022-12-20T01:26:12;3.42;;;1.85;;
25913;SDS011;13718;50.922;5.346;2022-12-20T01:28:40;5.38;;;1.98;;
25913;SDS011;13718;50.922;5.346;2022-12-20T01:31:07;5.78;;;2.10;;
25913;SDS011;13718;50.922;5.346;2022-12-20T01:33:34;6.00;;;1.83;;
25913;SDS011;13718;50.922;5.346;2022-12-20T01:36:02;4.85;;;1.88;;
25913;SDS011;13718;50.922;5.346;2022-12-20T01:38:30;7.38;;;2.05;;
25913;SDS011;13718;50.922;5.346;2022-12-20T01:40:56;4.57;;;1.95;;
25913;SDS011;13718;50.922;5.346;2022-12-20T01:43:22;7.05;;;2.38;;
25913;SDS011;13718;50.922;5.346;2022-12-20T01:45:49;6.72;;;2.20;;
25913;SDS011;13718;50.922;5.346;2022-12-20T01:48:20;4.45;;;2.22;;
25913;SDS011;13718;50.922;5.346;2022-12-20T01:50:47;2.97;;;1.77;;
25913;SDS011;13718;50.922;5.346;2022-12-20T01:53:14;3.83;;;1.98;;
25913;SDS011;13718;50.922;5.346;2022-12-20T01:55:42;4.43;;;1.80;;
25913;SDS011;13718;50.922;5.346;2022-12-20T01:58:09;5.75;;;2.10;;
25913;SDS011;13718;50.922;5.346;2022-12-20T02:00:36;5.22;;;1.95;;
25913;SDS011;13718;50.922;5.346;2022-12-20T02:03:04;3.75;;;1.90;;
25913;SDS011;13718;50.922;5.346;2022-12-20T02:05:35;5.35;;;2.20;;
25913;SDS011;13718;50.922;5.346;2022-12-20T02:08:02;4.85;;;1.83;;
25913;SDS011;13718;50.922;5.346;2022-12-20T02:13:54;6.18;;;1.80;;
25913;SDS011;13718;50.922;5.346;2022-12-20T02:16:30;7.28;;;2.17;;
25913;SDS011;13718;50.922;5.346;2022-12-20T02:19:08;4.53;;;1.92;;
25913;SDS011;13718;50.922;5.346;2022-12-20T02:22:01;5.60;;;1.90;;
25913;SDS011;13718;50.922;5.346;2022-12-20T02:27:43;4.93;;;1.75;;
25913;SDS011;13718;50.922;5.346;2022-12-20T02:30:11;5.80;;;1.98;;
25913;SDS011;13718;50.922;5.346;2022-12-20T02:32:54;5.80;;;2.00;;
25913;SDS011;13718;50.922;5.346;2022-12-20T02:35:28;5.10;;;1.73;;
25913;SDS011;13718;50.922;5.346;2022-12-20T02:37:57;5.32;;;2.00;;
25913;SDS011;13718;50.922;5.346;2022-12-20T02:40:25;4.78;;;2.00;;
25913;SDS011;13718;50.922;5.346;2022-12-20T02:43:12;4.15;;;2.30;;
25913;SDS011;13718;50.922;5.346;2022-12-20T02:45:58;7.90;;;1.88;;
25913;SDS011;13718;50.922;5.346;2022-12-20T02:48:26;3.55;;;1.77;;
25913;SDS011;13718;50.922;5.346;2022-12-20T02:50:56;8.80;;;1.95;;
25913;SDS011;13718;50.922;5.346;2022-12-20T02:53:24;4.03;;;1.92;;
25913;SDS011;13718;50.922;5.346;2022-12-20T02:55:56;5.70;;;2.22;;
25913;SDS011;13718;50.922;5.346;2022-12-20T02:58:28;7.03;;;2.05;;
25913;SDS011;13718;50.922;5.346;2022-12-20T03:01:01;4.57;;;2.10;;
25913;SDS011;13718;50.922;5.346;2022-12-20T03:03:32;5.82;;;2.50;;
25913;SDS011;13718;50.922;5.346;2022-12-20T03:05:59;3.63;;;2.10;;
25913;SDS011;13718;50.922;5.346;2022-12-20T03:08:26;7.47;;;2.35;;
25913;SDS011;13718;50.922;5.346;2022-12-20T03:10:52;5.63;;;2.20;;
25913;SDS011;13718;50.922;5.346;2022-12-20T03:13:19;4.88;;;1.88;;
25913;SDS011;13718;50.922;5.346;2022-12-20T03:15:46;3.65;;;2.03;;
25913;SDS011;13718;50.922;5.346;2022-12-20T03:18:12;7.03;;;2.00;;
25913;SDS011;13718;50.922;5.346;2022-12-20T03:20:38;8.90;;;2.20;;
25913;SDS011;13718;50.922;5.346;2022-12-20T03:23:04;5.00;;;2.00;;
25913;SDS011;13718;50.922;5.346;2022-12-20T03:25:30;3.88;;;2.00;;
25913;SDS011;13718;50.922;5.346;2022-12-20T03:27:55;4.57;;;1.92;;
25913;SDS011;13718;50.922;5.346;2022-12-20T03:30:21;6.85;;;2.00;;
25913;SDS011;13718;50.922;5.346;2022-12-20T03:32:47;4.53;;;1.77;;
25913;SDS011;13718;50.922;5.346;2022-12-20T03:35:13;5.95;;;2.00;;
25913;SDS011;13718;50.922;5.346;2022-12-20T03:37:38;4.25;;;2.00;;
25913;SDS011;13718;50.922;5.346;2022-12-20T03:40:04;5.68;;;2.20;;
25913;SDS011;13718;50.922;5.346;2022-12-20T03:42:31;10.18;;;3.20;;
25913;SDS011;13718;50.922;5.346;2022-12-20T03:44:56;4.03;;;2.20;;
25913;SDS011;13718;50.922;5.346;2022-12-20T03:47:22;8.63;;;2.25;;
25913;SDS011;13718;50.922;5.346;2022-12-20T03:49:47;5.88;;;2.00;;
25913;SDS011;13718;50.922;5.346;2022-12-20T03:52:13;5.30;;;2.13;;
25913;SDS011;13718;50.922;5.346;2022-12-20T03:54:39;4.22;;;1.98;;
25913;SDS011;13718;50.922;5.346;2022-12-20T03:57:05;5.28;;;2.13;;
25913;SDS011;13718;50.922;5.346;2022-12-20T03:59:30;5.03;;;2.28;;
25913;SDS011;13718;50.922;5.346;2022-12-20T04:01:56;4.43;;;2.03;;
25913;SDS011;13718;50.922;5.346;2022-12-20T04:04:22;7.15;;;2.50;;
25913;SDS011;13718;50.922;5.346;2022-12-20T04:06:47;5.75;;;2.20;;
25913;SDS011;13718;50.922;5.346;2022-12-20T04:09:13;5.93;;;2.10;;
25913;SDS011;13718;50.922;5.346;2022-12-20T04:11:39;6.15;;;2.92;;
25913;SDS011;13718;50.922;5.346;2022-12-20T04:14:05;7.82;;;2.53;;
25913;SDS011;13718;50.922;5.346;2022-12-20T04:16:31;5.00;;;2.17;;
25913;SDS011;13718;50.922;5.346;2022-12-20T04:18:57;5.15;;;2.45;;
25913;SDS011;13718;50.922;5.346;2022-12-20T04:21:23;5.00;;;2.15;;
25913;SDS011;13718;50.922;5.346;2022-12-20T04:23:51;5.05;;;2.22;;
25913;SDS011;13718;50.922;5.346;2022-12-20T04:26:17;4.38;;;1.88;;
25913;SDS011;13718;50.922;5.346;2022-12-20T04:28:43;4.75;;;2.13;;
25913;SDS011;13718;50.922;5.346;2022-12-20T04:31:09;9.77;;;2.05;;
25913;SDS011;13718;50.922;5.346;2022-12-20T04:33:35;4.07;;;2.30;;
25913;SDS011;13718;50.922;5.346;2022-12-20T04:36:00;6.75;;;1.90;;
25913;SDS011;13718;50.922;5.346;2022-12-20T04:38:26;5.53;;;2.10;;
25913;SDS011;13718;50.922;5.346;2022-12-20T04:40:52;6.68;;;2.38;;
25913;SDS011;13718;50.922;5.346;2022-12-20T04:43:19;3.50;;;1.80;;
25913;SDS011;13718;50.922;5.346;2022-12-20T04:45:47;6.10;;;1.90;;
25913;SDS011;13718;50.922;5.346;2022-12-20T04:48:13;5.95;;;2.40;;
25913;SDS011;13718;50.922;5.346;2022-12-20T04:50:41;5.78;;;1.90;;
25913;SDS011;13718;50.922;5.346;2022-12-20T04:53:08;5.07;;;1.80;;
25913;SDS011;13718;50.922;5.346;2022-12-20T04:55:53;4.22;;;2.00;;
25913;SDS011;13718;50.922;5.346;2022-12-20T04:58:19;5.13;;;1.80;;
25913;SDS011;13718;50.922;5.346;2022-12-20T05:00:45;5.38;;;2.30;;
25913;SDS011;13718;50.922;5.346;2022-12-20T05:03:10;6.50;;;1.90;;
25913;SDS011;13718;50.922;5.346;2022-12-20T05:05:36;3.35;;;1.45;;
25913;SDS011;13718;50.922;5.346;2022-12-20T05:08:02;7.10;;;1.92;;
25913;SDS011;13718;50.922;5.346;2022-12-20T05:10:27;3.63;;;1.70;;
25913;SDS011;13718;50.922;5.346;2022-12-20T05:12:53;4.55;;;1.52;;
25913;SDS011;13718;50.922;5.346;2022-12-20T05:15:19;3.53;;;1.67;;
25913;SDS011;13718;50.922;5.346;2022-12-20T05:17:44;5.70;;;1.70;;
25913;SDS011;13718;50.922;5.346;2022-12-20T05:20:10;3.45;;;1.52;;
25913;SDS011;13718;50.922;5.346;2022-12-20T05:22:36;3.50;;;1.77;;
25913;SDS011;13718;50.922;5.346;2022-12-20T05:25:21;4.65;;;1.52;;
25913;SDS011;13718;50.922;5.346;2022-12-20T05:28:05;4.70;;;1.60;;
25913;SDS011;13718;50.922;5.346;2022-12-20T05:30:30;4.00;;;1.60;;
25913;SDS011;13718;50.922;5.346;2022-12-20T05:32:56;4.93;;;1.63;;
25913;SDS011;13718;50.922;5.346;2022-12-20T05:35:22;5.05;;;1.90;;
25913;SDS011;13718;50.922;5.346;2022-12-20T05:37:47;6.68;;;1.98;;
25913;SDS011;13718;50.922;5.346;2022-12-20T05:40:13;6.43;;;1.58;;
25913;SDS011;13718;50.922;5.346;2022-12-20T05:42:40;4.55;;;1.42;;
25913;SDS011;13718;50.922;5.346;2022-12-20T05:45:05;5.40;;;1.50;;
25913;SDS011;13718;50.922;5.346;2022-12-20T05:47:32;5.18;;;1.42;;
25913;SDS011;13718;50.922;5.346;2022-12-20T05:49:58;5.75;;;1.52;;
25913;SDS011;13718;50.922;5.346;2022-12-20T05:52:24;4.90;;;1.80;;
25913;SDS011;13718;50.922;5.346;2022-12-20T05:54:50;3.53;;;1.23;;
25913;SDS011;13718;50.922;5.346;2022-12-20T05:57:15;3.13;;;1.40;;
25913;SDS011;13718;50.922;5.346;2022-12-20T05:59:41;5.43;;;1.50;;
25913;SDS011;13718;50.922;5.346;2022-12-20T06:02:07;4.20;;;1.50;;
25913;SDS011;13718;50.922;5.346;2022-12-20T06:04:35;4.82;;;1.42;;
25913;SDS011;13718;50.922;5.346;2022-12-20T06:07:01;3.67;;;1.70;;
25913;SDS011;13718;50.922;5.346;2022-12-20T06:09:27;6.60;;;1.40;;
25913;SDS011;13718;50.922;5.346;2022-12-20T06:11:54;5.75;;;1.55;;
25913;SDS011;13718;50.922;5.346;2022-12-20T06:14:19;4.07;;;1.50;;
25913;SDS011;13718;50.922;5.346;2022-12-20T06:16:45;7.15;;;1.67;;
25913;SDS011;13718;50.922;5.346;2022-12-20T06:19:11;4.80;;;1.30;;
25913;SDS011;13718;50.922;5.346;2022-12-20T06:21:37;4.47;;;1.48;;
25913;SDS011;13718;50.922;5.346;2022-12-20T06:24:02;5.57;;;1.55;;
25913;SDS011;13718;50.922;5.346;2022-12-20T06:26:28;7.35;;;1.42;;
25913;SDS011;13718;50.922;5.346;2022-12-20T06:29:00;4.70;;;1.30;;
25913;SDS011;13718;50.922;5.346;2022-12-20T06:31:26;3.33;;;1.40;;
25913;SDS011;13718;50.922;5.346;2022-12-20T06:33:51;1.95;;;1.20;;
25913;SDS011;13718;50.922;5.346;2022-12-20T06:36:17;5.57;;;1.50;;
25913;SDS011;13718;50.922;5.346;2022-12-20T06:38:43;3.35;;;1.55;;
25913;SDS011;13718;50.922;5.346;2022-12-20T06:41:09;5.68;;;2.05;;
25913;SDS011;13718;50.922;5.346;2022-12-20T06:43:34;3.83;;;1.38;;
25913;SDS011;13718;50.922;5.346;2022-12-20T06:46:00;5.13;;;1.27;;
25913;SDS011;13718;50.922;5.346;2022-12-20T06:48:25;3.25;;;1.25;;
25913;SDS011;13718;50.922;5.346;2022-12-20T06:50:51;7.15;;;1.60;;
25913;SDS011;13718;50.922;5.346;2022-12-20T06:53:17;4.63;;;1.40;;
25913;SDS011;13718;50.922;5.346;2022-12-20T06:55:42;3.90;;;1.38;;
25913;SDS011;13718;50.922;5.346;2022-12-20T06:58:10;5.45;;;1.33;;
25913;SDS011;13718;50.922;5.346;2022-12-20T07:00:37;3.83;;;1.30;;
25913;SDS011;13718;50.922;5.346;2022-12-20T07:03:03;2.97;;;1.25;;
25913;SDS011;13718;50.922;5.346;2022-12-20T07:05:28;4.72;;;1.48;;
25913;SDS011;13718;50.922;5.346;2022-12-20T07:07:54;3.63;;;1.30;;
25913;SDS011;13718;50.922;5.346;2022-12-20T07:10:20;3.30;;;1.33;;
25913;SDS011;13718;50.922;5.346;2022-12-20T07:12:45;2.80;;;1.15;;
25913;SDS011;13718;50.922;5.346;2022-12-20T07:15:11;5.90;;;1.50;;
25913;SDS011;13718;50.922;5.346;2022-12-20T07:17:36;6.40;;;1.42;;
25913;SDS011;13718;50.922;5.346;2022-12-20T07:20:02;3.13;;;1.40;;
25913;SDS011;13718;50.922;5.346;2022-12-20T07:22:28;5.43;;;1.50;;
25913;SDS011;13718;50.922;5.346;2022-12-20T07:24:53;4.07;;;1.38;;
25913;SDS011;13718;50.922;5.346;2022-12-20T07:27:20;4.13;;;1.20;;
25913;SDS011;13718;50.922;5.346;2022-12-20T07:29:45;3.15;;;1.33;;
25913;SDS011;13718;50.922;5.346;2022-12-20T07:32:11;3.92;;;1.27;;
25913;SDS011;13718;50.922;5.346;2022-12-20T07:34:38;5.32;;;1.50;;
25913;SDS011;13718;50.922;5.346;2022-12-20T07:37:03;5.75;;;1.40;;
25913;SDS011;13718;50.922;5.346;2022-12-20T07:39:29;2.45;;;1.13;;
25913;SDS011;13718;50.922;5.346;2022-12-20T07:41:55;2.95;;;1.30;;
25913;SDS011;13718;50.922;5.346;2022-12-20T07:44:22;4.15;;;1.35;;
25913;SDS011;13718;50.922;5.346;2022-12-20T07:46:48;3.58;;;1.38;;
25913;SDS011;13718;50.922;5.346;2022-12-20T07:49:13;4.22;;;1.40;;
25913;SDS011;13718;50.922;5.346;2022-12-20T07:51:41;5.05;;;1.33;;
25913;SDS011;13718;50.922;5.346;2022-12-20T07:56:41;2.90;;;1.35;;
25913;SDS011;13718;50.922;5.346;2022-12-20T07:59:10;3.13;;;1.27;;
25913;SDS011;13718;50.922;5.346;2022-12-20T08:01:38;5.40;;;1.30;;
25913;SDS011;13718;50.922;5.346;2022-12-20T08:04:10;3.47;;;1.10;;
25913;SDS011;13718;50.922;5.346;2022-12-20T08:09:05;4.25;;;1.20;;
25913;SDS011;13718;50.922;5.346;2022-12-20T08:11:31;4.18;;;1.23;;
25913;SDS011;13718;50.922;5.346;2022-12-20T08:13:59;2.83;;;1.05;;
25913;SDS011;13718;50.922;5.346;2022-12-20T08:16:25;4.55;;;1.35;;
25913;SDS011;13718;50.922;5.346;2022-12-20T08:18:50;3.97;;;1.30;;
25913;SDS011;13718;50.922;5.346;2022-12-20T08:21:16;2.10;;;1.10;;
25913;SDS011;13718;50.922;5.346;2022-12-20T08:23:43;2.90;;;1.42;;
25913;SDS011;13718;50.922;5.346;2022-12-20T08:26:08;3.42;;;1.13;;
25913;SDS011;13718;50.922;5.346;2022-12-20T08:28:34;3.42;;;1.50;;
25913;SDS011;13718;50.922;5.346;2022-12-20T08:31:01;2.78;;;1.55;;
25913;SDS011;13718;50.922;5.346;2022-12-20T08:33:28;4.57;;;1.60;;
25913;SDS011;13718;50.922;5.346;2022-12-20T08:36:02;5.15;;;1.63;;
25913;SDS011;13718;50.922;5.346;2022-12-20T08:38:30;5.60;;;1.58;;
25913;SDS011;13718;50.922;5.346;2022-12-20T08:41:09;4.85;;;1.60;;
25913;SDS011;13718;50.922;5.346;2022-12-20T08:43:37;3.75;;;1.50;;
25913;SDS011;13718;50.922;5.346;2022-12-20T08:46:04;4.72;;;1.38;;
25913;SDS011;13718;50.922;5.346;2022-12-20T08:48:31;2.95;;;1.40;;
25913;SDS011;13718;50.922;5.346;2022-12-20T08:50:57;4.38;;;1.30;;
25913;SDS011;13718;50.922;5.346;2022-12-20T08:53:26;2.40;;;1.20;;
25913;SDS011;13718;50.922;5.346;2022-12-20T08:55:53;8.50;;;1.70;;
25913;SDS011;13718;50.922;5.346;2022-12-20T08:58:26;3.53;;;1.45;;
25913;SDS011;13718;50.922;5.346;2022-12-20T09:00:52;4.35;;;1.40;;
25913;SDS011;13718;50.922;5.346;2022-12-20T09:03:17;4.50;;;1.48;;
25913;SDS011;13718;50.922;5.346;2022-12-20T09:05:46;4.63;;;1.42;;
25913;SDS011;13718;50.922;5.346;2022-12-20T09:08:12;3.75;;;1.20;;
25913;SDS011;13718;50.922;5.346;2022-12-20T09:10:39;4.60;;;1.42;;
25913;SDS011;13718;50.922;5.346;2022-12-20T09:13:05;6.80;;;1.60;;
25913;SDS011;13718;50.922;5.346;2022-12-20T09:15:32;4.13;;;1.60;;
25913;SDS011;13718;50.922;5.346;2022-12-20T09:17:58;2.75;;;1.40;;
25913;SDS011;13718;50.922;5.346;2022-12-20T09:20:24;2.63;;;1.35;;
25913;SDS011;13718;50.922;5.346;2022-12-20T09:22:50;5.65;;;1.55;;
25913;SDS011;13718;50.922;5.346;2022-12-20T09:25:15;4.57;;;1.50;;
25913;SDS011;13718;50.922;5.346;2022-12-20T09:27:41;4.70;;;1.45;;
25913;SDS011;13718;50.922;5.346;2022-12-20T09:30:07;4.00;;;1.40;;
25913;SDS011;13718;50.922;5.346;2022-12-20T09:32:33;5.75;;;1.80;;
25913;SDS011;13718;50.922;5.346;2022-12-20T09:34:58;5.90;;;1.65;;
25913;SDS011;13718;50.922;5.346;2022-12-20T09:37:24;5.07;;;1.48;;
25913;SDS011;13718;50.922;5.346;2022-12-20T09:39:50;4.55;;;1.40;;
25913;SDS011;13718;50.922;5.346;2022-12-20T09:42:15;5.78;;;1.60;;
25913;SDS011;13718;50.922;5.346;2022-12-20T09:44:44;4.28;;;1.42;;
25913;SDS011;13718;50.922;5.346;2022-12-20T09:47:20;5.82;;;1.40;;
25913;SDS011;13718;50.922;5.346;2022-12-20T09:49:49;7.65;;;1.33;;
25913;SDS011;13718;50.922;5.346;2022-12-20T09:52:22;2.97;;;1.55;;
25913;SDS011;13718;50.922;5.346;2022-12-20T10:00:42;3.42;;;1.73;;
25913;SDS011;13718;50.922;5.346;2022-12-20T10:03:32;5.55;;;1.70;;
25913;SDS011;13718;50.922;5.346;2022-12-20T10:05:57;4.03;;;1.20;;
25913;SDS011;13718;50.922;5.346;2022-12-20T10:16:48;2.65;;;1.42;;
25913;SDS011;13718;50.922;5.346;2022-12-20T10:22:07;3.47;;;1.48;;
25913;SDS011;13718;50.922;5.346;2022-12-20T10:24:52;3.28;;;1.55;;
25913;SDS011;13718;50.922;5.346;2022-12-20T10:27:35;3.33;;;1.65;;
25913;SDS011;13718;50.922;5.346;2022-12-20T10:30:10;5.53;;;1.85;;
25913;SDS011;13718;50.922;5.346;2022-12-20T10:32:40;5.00;;;1.60;;
25913;SDS011;13718;50.922;5.346;2022-12-20T10:37:35;4.68;;;1.65;;
25913;SDS011;13718;50.922;5.346;2022-12-20T10:40:01;3.40;;;1.40;;
25913;SDS011;13718;50.922;5.346;2022-12-20T10:42:35;4.75;;;1.70;;
25913;SDS011;13718;50.922;5.346;2022-12-20T10:45:04;3.72;;;1.60;;
25913;SDS011;13718;50.922;5.346;2022-12-20T10:47:57;4.72;;;1.23;;
25913;SDS011;13718;50.922;5.346;2022-12-20T10:50:24;3.90;;;1.50;;
25913;SDS011;13718;50.922;5.346;2022-12-20T11:01:14;4.60;;;1.70;;
25913;SDS011;13718;50.922;5.346;2022-12-20T11:04:02;5.20;;;1.77;;
25913;SDS011;13718;50.922;5.346;2022-12-20T11:06:49;6.30;;;1.85;;
25913;SDS011;13718;50.922;5.346;2022-12-20T11:12:02;4.90;;;1.80;;
25913;SDS011;13718;50.922;5.346;2022-12-20T11:14:39;5.78;;;1.60;;
25913;SDS011;13718;50.922;5.346;2022-12-20T11:27:42;6.57;;;1.98;;
25913;SDS011;13718;50.922;5.346;2022-12-20T11:30:32;7.75;;;2.58;;
25913;SDS011;13718;50.922;5.346;2022-12-20T11:38:43;4.93;;;2.13;;
25913;SDS011;13718;50.922;5.346;2022-12-20T11:41:21;5.47;;;1.80;;
25913;SDS011;13718;50.922;5.346;2022-12-20T11:44:17;3.88;;;2.05;;
25913;SDS011;13718;50.922;5.346;2022-12-20T11:47:11;6.43;;;2.30;;
25913;SDS011;13718;50.922;5.346;2022-12-20T11:55:36;7.30;;;2.10;;
25913;SDS011;13718;50.922;5.346;2022-12-20T12:00:14;6.78;;;2.65;;
25913;SDS011;13718;50.922;5.346;2022-12-20T12:07:49;4.75;;;2.50;;
25913;SDS011;13718;50.922;5.346;2022-12-20T12:10:23;7.75;;;2.42;;
25913;SDS011;13718;50.922;5.346;2022-12-20T12:20:30;5.70;;;2.45;;
25913;SDS011;13718;50.922;5.346;2022-12-20T12:25:40;6.00;;;2.60;;
25913;SDS011;13718;50.922;5.346;2022-12-20T12:28:08;10.52;;;3.38;;
25913;SDS011;13718;50.922;5.346;2022-12-20T12:30:37;7.35;;;2.53;;
25913;SDS011;13718;50.922;5.346;2022-12-20T12:33:07;10.73;;;2.83;;
25913;SDS011;13718;50.922;5.346;2022-12-20T12:46:44;7.70;;;2.55;;
25913;SDS011;13718;50.922;5.346;2022-12-20T12:49:20;7.57;;;2.58;;
25913;SDS011;13718;50.922;5.346;2022-12-20T12:51:51;4.65;;;2.28;;
25913;SDS011;13718;50.922;5.346;2022-12-20T12:54:23;5.72;;;2.65;;
25913;SDS011;13718;50.922;5.346;2022-12-20T12:57:00;7.88;;;2.60;;
25913;SDS011;13718;50.922;5.346;2022-12-20T13:04:51;7.63;;;2.50;;
25913;SDS011;13718;50.922;5.346;2022-12-20T13:07:44;11.77;;;2.97;;
25913;SDS011;13718;50.922;5.346;2022-12-20T13:17:49;9.02;;;3.00;;
25913;SDS011;13718;50.922;5.346;2022-12-20T13:20:34;10.88;;;3.42;;
25913;SDS011;13718;50.922;5.346;2022-12-20T13:25:32;8.50;;;3.28;;
25913;SDS011;13718;50.922;5.346;2022-12-20T13:30:40;8.30;;;3.00;;
25913;SDS011;13718;50.922;5.346;2022-12-20T13:33:20;10.82;;;3.10;;
25913;SDS011;13718;50.922;5.346;2022-12-20T13:35:58;10.38;;;3.45;;
25913;SDS011;13718;50.922;5.346;2022-12-20T13:43:59;12.38;;;3.17;;
25913;SDS011;13718;50.922;5.346;2022-12-20T13:46:42;12.00;;;3.75;;
25913;SDS011;13718;50.922;5.346;2022-12-20T13:49:18;11.27;;;3.05;;
25913;SDS011;13718;50.922;5.346;2022-12-20T13:54:38;8.70;;;3.63;;
25913;SDS011;13718;50.922;5.346;2022-12-20T13:57:05;11.00;;;3.47;;
25913;SDS011;13718;50.922;5.346;2022-12-20T13:59:32;11.45;;;3.65;;
25913;SDS011;13718;50.922;5.346;2022-12-20T14:01:59;11.45;;;3.60;;
25913;SDS011;13718;50.922;5.346;2022-12-20T14:04:38;11.45;;;3.78;;
25913;SDS011;13718;50.922;5.346;2022-12-20T14:07:07;7.78;;;3.53;;
25913;SDS011;13718;50.922;5.346;2022-12-20T14:09:37;10.90;;;3.72;;
25913;SDS011;13718;50.922;5.346;2022-12-20T14:12:13;9.45;;;3.13;;
25913;SDS011;13718;50.922;5.346;2022-12-20T14:14:44;6.43;;;3.35;;
25913;SDS011;13718;50.922;5.346;2022-12-20T14:20:02;11.73;;;4.15;;
25913;SDS011;13718;50.922;5.346;2022-12-20T14:25:30;8.48;;;3.75;;
25913;SDS011;13718;50.922;5.346;2022-12-20T14:28:14;9.20;;;3.55;;
25913;SDS011;13718;50.922;5.346;2022-12-20T14:31:01;8.60;;;3.40;;
25913;SDS011;13718;50.922;5.346;2022-12-20T14:33:35;11.40;;;4.07;;
25913;SDS011;13718;50.922;5.346;2022-12-20T14:36:09;9.80;;;3.90;;
25913;SDS011;13718;50.922;5.346;2022-12-20T14:38:42;10.30;;;3.97;;
25913;SDS011;13718;50.922;5.346;2022-12-20T14:44:02;10.55;;;3.92;;
25913;SDS011;13718;50.922;5.346;2022-12-20T14:46:38;8.70;;;4.15;;
25913;SDS011;13718;50.922;5.346;2022-12-20T14:49:14;9.48;;;4.25;;
25913;SDS011;13718;50.922;5.346;2022-12-20T14:51:41;11.45;;;4.43;;
25913;SDS011;13718;50.922;5.346;2022-12-20T14:54:17;9.70;;;3.90;;
25913;SDS011;13718;50.922;5.346;2022-12-20T14:56:49;11.13;;;4.35;;
25913;SDS011;13718;50.922;5.346;2022-12-20T14:59:24;10.15;;;4.43;;
25913;SDS011;13718;50.922;5.346;2022-12-20T15:01:51;9.82;;;4.15;;
25913;SDS011;13718;50.922;5.346;2022-12-20T15:04:36;7.88;;;3.30;;
25913;SDS011;13718;50.922;5.346;2022-12-20T15:07:02;12.15;;;4.82;;
25913;SDS011;13718;50.922;5.346;2022-12-20T15:09:27;8.95;;;3.92;;
25913;SDS011;13718;50.922;5.346;2022-12-20T15:11:54;9.65;;;4.05;;
25913;SDS011;13718;50.922;5.346;2022-12-20T15:14:36;8.43;;;4.00;;
25913;SDS011;13718;50.922;5.346;2022-12-20T15:17:11;11.52;;;4.22;;
25913;SDS011;13718;50.922;5.346;2022-12-20T15:19:41;12.02;;;4.18;;
25913;SDS011;13718;50.922;5.346;2022-12-20T15:22:15;9.40;;;3.67;;
25913;SDS011;13718;50.922;5.346;2022-12-20T15:24:43;10.90;;;4.03;;
25913;SDS011;13718;50.922;5.346;2022-12-20T15:27:12;14.43;;;4.20;;
25913;SDS011;13718;50.922;5.346;2022-12-20T15:29:38;6.15;;;3.70;;
25913;SDS011;13718;50.922;5.346;2022-12-20T15:32:05;12.27;;;4.28;;
25913;SDS011;13718;50.922;5.346;2022-12-20T15:34:38;11.27;;;4.40;;
25913;SDS011;13718;50.922;5.346;2022-12-20T15:37:04;10.80;;;4.30;;
25913;SDS011;13718;50.922;5.346;2022-12-20T15:39:30;10.65;;;4.60;;
25913;SDS011;13718;50.922;5.346;2022-12-20T15:41:57;11.57;;;3.95;;
25913;SDS011;13718;50.922;5.346;2022-12-20T15:44:28;14.90;;;4.97;;
25913;SDS011;13718;50.922;5.346;2022-12-20T15:46:55;10.80;;;4.28;;
25913;SDS011;13718;50.922;5.346;2022-12-20T15:49:25;14.02;;;4.10;;
25913;SDS011;13718;50.922;5.346;2022-12-20T15:51:54;12.55;;;4.25;;
25913;SDS011;13718;50.922;5.346;2022-12-20T15:56:54;12.30;;;4.68;;
25913;SDS011;13718;50.922;5.346;2022-12-20T15:59:21;12.65;;;4.50;;
25913;SDS011;13718;50.922;5.346;2022-12-20T16:01:46;12.98;;;4.65;;
25913;SDS011;13718;50.922;5.346;2022-12-20T16:04:16;10.15;;;4.28;;
25913;SDS011;13718;50.922;5.346;2022-12-20T16:06:44;14.80;;;4.68;;
25913;SDS011;13718;50.922;5.346;2022-12-20T16:09:12;12.13;;;5.05;;
25913;SDS011;13718;50.922;5.346;2022-12-20T16:11:38;10.75;;;4.88;;
25913;SDS011;13718;50.922;5.346;2022-12-20T16:14:04;16.23;;;4.65;;
25913;SDS011;13718;50.922;5.346;2022-12-20T16:16:35;15.50;;;4.72;;
25913;SDS011;13718;50.922;5.346;2022-12-20T16:19:01;15.33;;;4.87;;
25913;SDS011;13718;50.922;5.346;2022-12-20T16:21:30;14.60;;;4.82;;
25913;SDS011;13718;50.922;5.346;2022-12-20T16:23:58;12.23;;;4.65;;
25913;SDS011;13718;50.922;5.346;2022-12-20T16:26:24;14.27;;;4.75;;
25913;SDS011;13718;50.922;5.346;2022-12-20T16:28:51;12.57;;;5.22;;
25913;SDS011;13718;50.922;5.346;2022-12-20T16:33:57;15.55;;;4.82;;
25913;SDS011;13718;50.922;5.346;2022-12-20T16:36:24;9.68;;;4.78;;
25913;SDS011;13718;50.922;5.346;2022-12-20T16:38:50;12.15;;;4.93;;
25913;SDS011;13718;50.922;5.346;2022-12-20T16:41:28;9.52;;;4.65;;
25913;SDS011;13718;50.922;5.346;2022-12-20T16:43:55;13.82;;;5.45;;
25913;SDS011;13718;50.922;5.346;2022-12-20T16:46:22;15.25;;;5.45;;
25913;SDS011;13718;50.922;5.346;2022-12-20T16:48:53;14.80;;;5.45;;
25913;SDS011;13718;50.922;5.346;2022-12-20T16:51:25;13.05;;;5.90;;
25913;SDS011;13718;50.922;5.346;2022-12-20T16:53:54;9.80;;;5.78;;
25913;SDS011;13718;50.922;5.346;2022-12-20T16:56:22;10.95;;;5.18;;
25913;SDS011;13718;50.922;5.346;2022-12-20T16:58:48;13.75;;;5.07;;
25913;SDS011;13718;50.922;5.346;2022-12-20T17:01:15;10.77;;;4.68;;
25913;SDS011;13718;50.922;5.346;2022-12-20T17:03:43;11.68;;;5.10;;
25913;SDS011;13718;50.922;5.346;2022-12-20T17:06:10;12.75;;;5.50;;
25913;SDS011;13718;50.922;5.346;2022-12-20T17:08:37;16.65;;;5.25;;